createdAt,value
2019-05-07T00:01:27.212Z,6.80
2019-05-07T00:03:56.619Z,6.63
2019-05-07T00:06:32.484Z,6.70
2019-05-07T00:09:03.180Z,6.93
2019-05-07T00:11:33.181Z,6.90
2019-05-07T00:14:06.140Z,6.43
2019-05-07T00:16:36.591Z,7.23
2019-05-07T00:19:32.253Z,6.47
2019-05-07T00:22:02.389Z,6.70
2019-05-07T00:24:45.233Z,7.07
2019-05-07T00:27:22.759Z,7.00
2019-05-07T00:30:15.042Z,8.13
2019-05-07T00:32:45.580Z,7.33
2019-05-07T00:35:17.607Z,8.07
2019-05-07T00:37:53.364Z,8.57
2019-05-07T00:43:39.470Z,7.07
2019-05-07T00:49:33.733Z,7.00
2019-05-07T00:52:39.884Z,6.40
2019-05-07T00:55:02.857Z,6.27
2019-05-07T00:57:34.316Z,6.73
2019-05-07T01:00:13.118Z,7.30
2019-05-07T01:02:44.298Z,6.70
2019-05-07T01:05:13.746Z,7.33
2019-05-07T01:07:46.072Z,7.07
2019-05-07T01:10:38.943Z,6.30
2019-05-07T01:13:29.673Z,6.43
2019-05-07T01:16:06.599Z,5.50
2019-05-07T01:18:35.878Z,6.73
2019-05-07T01:21:38.422Z,5.63
2019-05-07T01:24:14.937Z,5.87
2019-05-07T01:26:54.163Z,6.20
2019-05-07T01:29:24.491Z,5.77
2019-05-07T01:32:12.563Z,5.53
2019-05-07T01:35:02.454Z,6.13
2019-05-07T01:37:32.671Z,6.43
2019-05-07T01:40:03.219Z,5.63
2019-05-07T01:42:42.335Z,5.80
2019-05-07T01:45:25.579Z,5.97
2019-05-07T01:47:58.038Z,6.17
2019-05-07T01:51:05.179Z,6.03
2019-05-07T01:53:48.799Z,6.00
2019-05-07T01:56:18.787Z,5.97
2019-05-07T01:58:48.226Z,6.50
2019-05-07T02:04:47.489Z,6.47
2019-05-07T02:07:34.329Z,5.90
2019-05-07T02:10:32.328Z,6.07
2019-05-07T02:13:22.832Z,5.87
2019-05-07T02:16:00.834Z,6.00
2019-05-07T02:18:35.482Z,6.37
2019-05-07T02:21:05.579Z,5.43
2019-05-07T02:23:53.419Z,6.70
2019-05-07T02:26:23.162Z,5.90
2019-05-07T02:28:54.393Z,6.40
2019-05-07T02:31:24.821Z,5.80
2019-05-07T02:33:56.150Z,6.10
2019-05-07T02:36:26.479Z,5.90
2019-05-07T02:39:12.873Z,6.17
2019-05-07T02:41:44.048Z,5.43
2019-05-07T02:44:14.424Z,5.67
2019-05-07T02:47:08.902Z,6.83
2019-05-07T02:49:44.744Z,5.70
2019-05-07T02:52:36.681Z,6.80
2019-05-07T02:55:37.317Z,6.13
2019-05-07T02:58:09.889Z,6.47
2019-05-07T03:00:47.156Z,5.77
2019-05-07T03:03:17.293Z,6.20
2019-05-07T03:06:06.427Z,6.10
2019-05-07T03:08:36.372Z,6.57
2019-05-07T03:11:09.668Z,6.50
2019-05-07T03:13:43.159Z,5.60
2019-05-07T03:16:33.678Z,6.00
2019-05-07T03:18:53.064Z,6.40
2019-05-07T03:21:23.541Z,6.10
2019-05-07T03:24:16.997Z,6.03
2019-05-07T03:26:47.441Z,5.60
2019-05-07T03:29:23.632Z,5.97
2019-05-07T03:37:50.466Z,6.47
2019-05-07T03:40:32.863Z,5.80
2019-05-07T03:43:16.723Z,5.87
2019-05-07T03:46:07.646Z,4.97
2019-05-07T03:49:48.099Z,5.20
2019-05-07T03:52:38.034Z,5.17
2019-05-07T03:58:04.834Z,4.93
2019-05-07T04:00:37.545Z,5.37
2019-05-07T04:03:08.778Z,5.30
2019-05-07T04:05:38.878Z,6.50
2019-05-07T04:08:12.853Z,6.03
2019-05-07T04:10:44.149Z,5.80
2019-05-07T04:13:13.673Z,5.30
2019-05-07T04:15:46.742Z,6.00
2019-05-07T04:18:23.839Z,5.23
2019-05-07T04:20:56.699Z,5.90
2019-05-07T04:23:25.844Z,5.70
2019-05-07T04:26:07.235Z,5.43
2019-05-07T04:28:55.139Z,5.33
2019-05-07T04:31:25.605Z,5.57
2019-05-07T04:33:56.671Z,5.13
2019-05-07T04:36:33.835Z,5.90
2019-05-07T04:39:03.887Z,5.47
2019-05-07T04:41:35.901Z,6.30
2019-05-07T04:44:04.898Z,6.33
2019-05-07T04:46:33.937Z,6.20
2019-05-07T04:49:09.160Z,5.93
2019-05-07T04:51:44.325Z,6.53
2019-05-07T04:54:13.500Z,6.30
2019-05-07T04:56:43.644Z,6.20
2019-05-07T04:59:13.327Z,6.33
2019-05-07T05:01:48.689Z,5.77
2019-05-07T05:04:26.908Z,6.37
2019-05-07T05:07:04.253Z,6.70
2019-05-07T05:09:34.521Z,6.23
2019-05-07T05:12:06.833Z,6.07
2019-05-07T05:14:37.098Z,6.73
2019-05-07T05:17:15.469Z,6.33
2019-05-07T05:19:46.551Z,6.50
2019-05-07T05:22:24.934Z,6.53
2019-05-07T05:25:26.880Z,6.40
2019-05-07T05:27:56.403Z,6.90
2019-05-07T05:30:32.959Z,7.00
2019-05-07T05:33:08.851Z,6.57
2019-05-07T05:38:33.247Z,7.83
2019-05-07T05:41:05.990Z,7.20
2019-05-07T05:43:43.771Z,7.53
2019-05-07T05:46:13.481Z,7.03
2019-05-07T05:48:42.847Z,7.10
2019-05-07T05:51:28.944Z,7.57
2019-05-07T05:54:35.442Z,8.20
2019-05-07T05:57:23.407Z,7.17
2019-05-07T06:00:14.168Z,7.23
2019-05-07T06:03:05.021Z,6.63
2019-05-07T06:06:05.830Z,7.87
2019-05-07T06:08:57.106Z,7.67
2019-05-07T06:11:42.999Z,7.70
2019-05-07T06:14:34.032Z,8.30
2019-05-07T06:17:23.434Z,7.43
2019-05-07T06:20:22.579Z,8.03
2019-05-07T06:23:19.652Z,8.00
2019-05-07T06:25:49.181Z,7.63
2019-05-07T06:28:18.084Z,8.10
2019-05-07T06:30:47.052Z,8.20
2019-05-07T06:33:15.886Z,7.67
2019-05-07T06:35:47.654Z,7.17
2019-05-07T06:38:17.013Z,7.87
2019-05-07T06:41:12.148Z,8.83
2019-05-07T06:43:54.397Z,9.23
2019-05-07T06:46:23.328Z,9.07
2019-05-07T06:48:58.768Z,9.20
2019-05-07T06:51:27.681Z,9.33
2019-05-07T06:53:56.526Z,10.50
2019-05-07T06:56:25.371Z,10.37
2019-05-07T06:59:12.951Z,11.87
2019-05-07T07:02:05.680Z,10.67
2019-05-07T07:04:44.604Z,10.40
2019-05-07T07:07:42.001Z,11.67
2019-05-07T07:10:35.517Z,10.77
2019-05-07T07:13:04.502Z,13.17
2019-05-07T07:15:33.418Z,12.63
2019-05-07T07:18:03.290Z,12.30
2019-05-07T07:20:32.720Z,11.67
2019-05-07T07:23:04.612Z,11.20
2019-05-07T07:25:33.393Z,11.43
2019-05-07T07:28:02.873Z,13.03
2019-05-07T07:30:52.685Z,12.70
2019-05-07T07:33:23.905Z,12.07
2019-05-07T07:35:53.373Z,11.40
2019-05-07T07:38:33.013Z,10.93
2019-05-07T07:41:18.731Z,11.03
2019-05-07T07:43:52.440Z,11.83
2019-05-07T07:46:22.130Z,10.80
2019-05-07T07:49:04.493Z,11.40
2019-05-07T07:51:37.864Z,12.30
2019-05-07T07:53:56.787Z,11.30
2019-05-07T07:56:52.639Z,11.37
2019-05-07T07:59:38.589Z,10.37
2019-05-07T08:02:19.237Z,10.70
2019-05-07T08:04:49.266Z,8.77
2019-05-07T08:07:19.269Z,8.73
2019-05-07T08:09:52.028Z,8.23
2019-05-07T08:12:22.313Z,8.27
2019-05-07T08:14:52.046Z,8.23
2019-05-07T08:17:22.365Z,8.63
2019-05-07T08:19:53.898Z,8.67
2019-05-07T08:22:22.994Z,9.07
2019-05-07T08:24:52.068Z,9.10
2019-05-07T08:27:22.180Z,8.00
2019-05-07T08:29:53.594Z,8.60
2019-05-07T08:33:02.006Z,8.23
2019-05-07T08:35:49.773Z,8.63
2019-05-07T08:38:18.745Z,8.40
2019-05-07T08:40:48.865Z,8.47
2019-05-07T08:43:18.011Z,8.40
2019-05-07T08:46:15.078Z,7.90
2019-05-07T08:48:47.209Z,8.20
2019-05-07T08:51:17.393Z,8.33
2019-05-07T08:53:48.019Z,8.07
2019-05-07T08:56:26.293Z,8.03
2019-05-07T08:58:55.150Z,8.47
2019-05-07T09:01:24.037Z,8.60
2019-05-07T09:03:53.705Z,8.50
2019-05-07T09:06:34.718Z,9.13
2019-05-07T09:09:12.853Z,9.30
2019-05-07T09:11:42.592Z,9.07
2019-05-07T09:14:23.563Z,8.90
2019-05-07T09:16:52.755Z,7.70
2019-05-07T09:19:21.921Z,7.80
2019-05-07T09:21:52.739Z,7.93
2019-05-07T09:24:22.523Z,8.60
2019-05-07T09:27:19.657Z,8.73
2019-05-07T09:30:06.226Z,7.23
2019-05-07T09:32:42.521Z,8.10
2019-05-07T09:35:15.445Z,7.73
2019-05-07T09:37:44.817Z,7.23
2019-05-07T09:40:13.907Z,7.13
2019-05-07T09:42:52.391Z,7.50
2019-05-07T09:45:19.909Z,7.27
2019-05-07T09:47:52.316Z,7.87
2019-05-07T09:50:22.074Z,7.50
2019-05-07T09:52:51.879Z,7.00
2019-05-07T09:55:23.317Z,7.90
2019-05-07T09:57:52.780Z,8.17
2019-05-07T10:00:22.747Z,7.20
2019-05-07T10:02:52.793Z,7.00
2019-05-07T10:05:24.143Z,7.10
2019-05-07T10:07:56.455Z,6.57
2019-05-07T10:10:27.608Z,6.87
2019-05-07T10:13:17.486Z,6.63
2019-05-07T10:15:52.599Z,7.70
2019-05-07T10:18:22.726Z,7.27
2019-05-07T10:20:55.016Z,7.43
2019-05-07T10:23:24.212Z,7.13
2019-05-07T10:25:54.274Z,6.67
2019-05-07T10:28:24.318Z,4.97
2019-05-07T10:30:55.291Z,5.90
2019-05-07T10:33:24.945Z,5.50
2019-05-07T10:35:57.940Z,5.73
2019-05-07T10:38:27.865Z,5.10
2019-05-07T10:40:59.650Z,7.20
2019-05-07T10:43:28.613Z,15.53
2019-05-07T10:46:26.412Z,5.50
2019-05-07T10:49:01.967Z,5.10
2019-05-07T10:51:32.230Z,4.43
2019-05-07T10:54:02.272Z,4.47
2019-05-07T10:56:32.680Z,4.77
2019-05-07T10:59:02.854Z,4.37
2019-05-07T11:01:38.813Z,4.73
2019-05-07T11:04:07.776Z,4.47
2019-05-07T11:06:36.756Z,4.13
2019-05-07T11:09:08.992Z,4.97
2019-05-07T11:11:39.554Z,5.20
2019-05-07T11:14:08.802Z,5.30
2019-05-07T11:16:44.997Z,5.47
2019-05-07T11:19:13.884Z,6.13
2019-05-07T11:21:42.903Z,5.70
2019-05-07T11:24:12.206Z,5.87
2019-05-07T11:26:41.974Z,5.37
2019-05-07T11:29:13.048Z,5.67
2019-05-07T11:31:42.409Z,5.60
2019-05-07T11:34:11.971Z,5.63
2019-05-07T11:36:42.954Z,5.27
2019-05-07T11:39:12.332Z,5.23
2019-05-07T11:42:04.493Z,5.33
2019-05-07T11:44:33.867Z,11.27
2019-05-07T11:47:22.492Z,4.23
2019-05-07T11:50:09.235Z,3.83
2019-05-07T11:52:45.556Z,3.30
2019-05-07T11:55:14.443Z,2.90
2019-05-07T11:57:44.501Z,3.13
2019-05-07T12:00:24.792Z,3.37
2019-05-07T12:02:53.708Z,2.90
2019-05-07T12:05:22.762Z,2.93
2019-05-07T12:07:51.752Z,3.00
2019-05-07T12:10:22.254Z,3.40
2019-05-07T12:12:54.459Z,3.20
2019-05-07T12:15:26.365Z,2.60
2019-05-07T12:17:55.341Z,3.07
2019-05-07T12:20:27.612Z,2.90
2019-05-07T12:22:56.606Z,3.43
2019-05-07T12:25:25.621Z,3.37
2019-05-07T12:27:54.618Z,2.97
2019-05-07T12:30:35.032Z,3.20
2019-05-07T12:33:25.585Z,3.57
2019-05-07T12:35:52.338Z,3.87
2019-05-07T12:38:24.060Z,3.37
2019-05-07T12:40:53.325Z,3.83
2019-05-07T12:43:22.225Z,3.50
2019-05-07T12:45:52.465Z,3.17
2019-05-07T12:48:21.836Z,3.40
2019-05-07T12:50:52.314Z,3.87
2019-05-07T12:53:49.844Z,3.33
2019-05-07T12:56:19.048Z,3.07
2019-05-07T12:58:53.909Z,2.83
2019-05-07T13:01:57.403Z,3.47
2019-05-07T13:04:27.698Z,3.10
2019-05-07T13:07:06.424Z,2.80
2019-05-07T13:09:38.769Z,3.20
2019-05-07T13:12:07.774Z,3.07
2019-05-07T13:14:37.092Z,2.90
2019-05-07T13:17:06.282Z,3.00
2019-05-07T13:19:35.206Z,3.00
2019-05-07T13:22:04.252Z,2.73
2019-05-07T13:24:33.143Z,2.57
2019-05-07T13:27:03.346Z,2.73
2019-05-07T13:29:37.139Z,2.40
2019-05-07T13:32:05.140Z,2.50
2019-05-07T13:34:34.435Z,2.80
2019-05-07T13:37:15.130Z,2.33
2019-05-07T13:39:52.197Z,2.67
2019-05-07T13:42:39.221Z,2.60
2019-05-07T13:45:20.045Z,2.30
2019-05-07T13:47:55.361Z,2.37
2019-05-07T13:50:24.568Z,2.50
2019-05-07T13:52:53.548Z,2.20
2019-05-07T13:55:22.834Z,2.43
2019-05-07T13:57:52.393Z,2.30
2019-05-07T14:00:32.439Z,2.87
2019-05-07T14:03:03.215Z,2.60
2019-05-07T14:05:35.291Z,4.57
2019-05-07T14:08:04.662Z,2.17
2019-05-07T14:10:34.303Z,2.93
2019-05-07T14:13:11.454Z,2.63
2019-05-07T14:15:35.039Z,5.47
2019-05-07T14:18:04.563Z,2.50
2019-05-07T14:20:33.516Z,2.30
2019-05-07T14:23:05.924Z,2.73
2019-05-07T14:25:37.682Z,2.70
2019-05-07T14:28:16.000Z,2.60
2019-05-07T14:30:47.893Z,2.10
2019-05-07T14:33:38.866Z,2.03
2019-05-07T14:36:14.538Z,2.53
2019-05-07T14:38:46.242Z,2.50
2019-05-07T14:41:15.158Z,2.70
2019-05-07T14:44:06.179Z,2.50
2019-05-07T14:46:47.351Z,2.50
2019-05-07T14:49:08.906Z,2.83
2019-05-07T14:51:44.013Z,2.70
2019-05-07T14:54:12.994Z,2.97
2019-05-07T14:56:42.862Z,2.70
2019-05-07T14:59:12.757Z,2.80
2019-05-07T15:01:42.975Z,3.50
2019-05-07T15:04:13.668Z,3.00
2019-05-07T15:06:48.226Z,2.80
2019-05-07T15:09:17.538Z,2.57
2019-05-07T15:11:46.593Z,2.43
2019-05-07T15:14:15.562Z,2.50
2019-05-07T15:16:44.998Z,2.40
2019-05-07T15:19:21.690Z,2.70
2019-05-07T15:21:54.577Z,2.43
2019-05-07T15:24:23.553Z,2.60
2019-05-07T15:26:54.494Z,2.93
2019-05-07T15:29:23.558Z,2.30
2019-05-07T15:32:21.843Z,2.70
2019-05-07T15:34:52.730Z,2.57
2019-05-07T15:37:21.840Z,2.60
2019-05-07T15:39:52.679Z,2.40
2019-05-07T15:42:22.249Z,2.50
2019-05-07T15:44:52.783Z,2.50
2019-05-07T15:47:27.502Z,2.70
2019-05-07T15:49:59.273Z,2.40
2019-05-07T15:52:57.631Z,2.70
2019-05-07T15:55:19.858Z,2.93
2019-05-07T15:57:52.419Z,2.50
2019-05-07T16:00:26.239Z,2.67
2019-05-07T16:03:02.483Z,2.57
2019-05-07T16:05:31.953Z,2.60
2019-05-07T16:08:05.170Z,2.13
2019-05-07T16:10:34.552Z,2.67
2019-05-07T16:13:07.299Z,2.27
2019-05-07T16:15:36.259Z,2.73
2019-05-07T16:18:09.497Z,2.60
2019-05-07T16:20:38.319Z,2.70
2019-05-07T16:23:14.984Z,2.97
2019-05-07T16:25:38.527Z,3.40
2019-05-07T16:28:12.787Z,3.10
2019-05-07T16:30:42.818Z,4.77
2019-05-07T16:33:12.793Z,2.80
2019-05-07T16:35:43.335Z,2.70
2019-05-07T16:38:14.750Z,2.80
2019-05-07T16:40:43.124Z,2.90
2019-05-07T16:43:15.022Z,3.60
2019-05-07T16:45:43.920Z,6.03
2019-05-07T16:48:14.130Z,6.00
2019-05-07T16:50:45.706Z,3.20
2019-05-07T16:53:26.498Z,2.80
2019-05-07T16:55:48.721Z,2.90
2019-05-07T16:58:38.117Z,2.80
2019-05-07T17:01:08.649Z,2.80
2019-05-07T17:03:48.174Z,2.50
2019-05-07T17:06:17.068Z,2.67
2019-05-07T17:08:59.713Z,1.90
2019-05-07T17:11:29.518Z,2.40
2019-05-07T17:14:02.960Z,2.33
2019-05-07T17:16:31.948Z,1.90
2019-05-07T17:19:03.856Z,2.30
2019-05-07T17:21:32.697Z,2.23
2019-05-07T17:24:02.599Z,2.03
2019-05-07T17:26:33.754Z,3.47
2019-05-07T17:29:02.712Z,2.60
2019-05-07T17:31:34.683Z,2.20
2019-05-07T17:34:03.981Z,2.33
2019-05-07T17:36:33.203Z,2.10
2019-05-07T17:39:09.336Z,1.80
2019-05-07T17:41:44.313Z,2.30
2019-05-07T17:44:16.144Z,1.60
2019-05-07T17:46:51.855Z,1.80
2019-05-07T17:49:21.905Z,2.10
2019-05-07T17:51:54.034Z,2.20
2019-05-07T17:54:24.289Z,1.93
2019-05-07T17:56:53.399Z,1.93
2019-05-07T17:59:22.280Z,1.80
2019-05-07T18:02:07.175Z,2.00
2019-05-07T18:04:54.579Z,1.93
2019-05-07T18:07:25.420Z,1.77
2019-05-07T18:09:54.381Z,1.83
2019-05-07T18:12:23.389Z,1.70
2019-05-07T18:14:52.948Z,1.90
2019-05-07T18:17:43.217Z,2.23
2019-05-07T18:20:23.874Z,1.80
2019-05-07T18:22:52.829Z,2.13
2019-05-07T18:25:24.649Z,2.00
2019-05-07T18:28:01.666Z,2.40
2019-05-07T18:30:32.542Z,1.90
2019-05-07T18:33:27.739Z,2.00
2019-05-07T18:35:59.568Z,2.23
2019-05-07T18:38:32.966Z,1.73
2019-05-07T18:41:02.848Z,1.93
2019-05-07T18:43:33.208Z,1.97
2019-05-07T18:46:02.497Z,2.20
2019-05-07T18:48:35.295Z,2.30
2019-05-07T18:51:05.052Z,2.20
2019-05-07T18:53:34.797Z,2.20
2019-05-07T18:56:04.132Z,2.37
2019-05-07T18:58:34.089Z,2.30
2019-05-07T19:01:08.339Z,2.50
2019-05-07T19:03:41.987Z,2.40
2019-05-07T19:06:15.348Z,3.00
2019-05-07T19:08:53.303Z,2.60
2019-05-07T19:11:26.889Z,2.33
2019-05-07T19:14:00.154Z,2.73
2019-05-07T19:16:32.174Z,2.50
2019-05-07T19:19:02.280Z,2.40
2019-05-07T19:21:32.578Z,2.60
2019-05-07T19:24:04.159Z,2.50
2019-05-07T19:26:33.989Z,2.93
2019-05-07T19:29:06.035Z,2.47
2019-05-07T19:31:37.974Z,2.33
2019-05-07T19:34:12.185Z,3.50
2019-05-07T19:36:42.375Z,3.70
2019-05-07T19:39:12.620Z,5.00
2019-05-07T19:41:43.046Z,4.10
2019-05-07T19:44:16.793Z,2.43
2019-05-07T19:46:47.240Z,2.70
2019-05-07T19:49:20.546Z,2.53
2019-05-07T19:51:49.455Z,2.80
2019-05-07T19:54:27.437Z,2.50
2019-05-07T19:56:56.452Z,2.30
2019-05-07T19:59:27.287Z,2.53
2019-05-07T20:02:02.459Z,2.60
2019-05-07T20:04:32.134Z,2.77
2019-05-07T20:07:04.261Z,2.53
2019-05-07T20:09:35.375Z,2.50
2019-05-07T20:12:04.363Z,2.90
2019-05-07T20:14:36.392Z,2.53
2019-05-07T20:17:05.757Z,3.07
2019-05-07T20:19:41.764Z,2.90
2019-05-07T20:22:13.765Z,3.17
2019-05-07T20:24:47.038Z,3.00
2019-05-07T20:27:16.458Z,2.73
2019-05-07T20:29:45.370Z,2.90
2019-05-07T20:32:18.069Z,2.90
2019-05-07T20:34:46.897Z,2.50
2019-05-07T20:37:16.126Z,3.40
2019-05-07T20:39:48.103Z,2.93
2019-05-07T20:42:17.372Z,3.67
2019-05-07T20:44:46.285Z,3.47
2019-05-07T20:47:15.517Z,4.83
2019-05-07T20:49:47.707Z,5.17
2019-05-07T20:52:16.930Z,5.37
2019-05-07T20:55:01.481Z,5.40
2019-05-07T20:57:35.613Z,4.97
2019-05-07T21:00:07.312Z,4.87
2019-05-07T21:02:47.182Z,3.67
2019-05-07T21:05:06.972Z,4.50
2019-05-07T21:07:39.268Z,4.70
2019-05-07T21:10:12.611Z,4.50
2019-05-07T21:12:45.173Z,5.00
2019-05-07T21:15:14.365Z,4.00
2019-05-07T21:17:43.954Z,3.93
2019-05-07T21:20:13.097Z,4.30
2019-05-07T21:22:42.540Z,4.50
2019-05-07T21:25:12.082Z,4.23
2019-05-07T21:27:43.106Z,5.23
2019-05-07T21:30:13.128Z,5.20
2019-05-07T21:32:48.304Z,5.30
2019-05-07T21:35:17.376Z,5.07
2019-05-07T21:37:49.123Z,4.57
2019-05-07T21:40:22.488Z,5.27
2019-05-07T21:42:52.153Z,4.93
2019-05-07T21:45:23.870Z,4.87
2019-05-07T21:47:54.503Z,5.10
2019-05-07T21:50:23.668Z,4.27
2019-05-07T21:52:58.024Z,4.80
2019-05-07T21:55:35.837Z,4.47
2019-05-07T21:58:23.243Z,4.60
2019-05-07T22:01:18.075Z,4.10
2019-05-07T22:03:55.910Z,4.13
2019-05-07T22:06:28.159Z,4.40
2019-05-07T22:08:57.170Z,4.00
2019-05-07T22:11:27.941Z,4.37
2019-05-07T22:14:02.201Z,5.03
2019-05-07T22:16:32.822Z,4.17
2019-05-07T22:19:05.170Z,4.70
2019-05-07T22:21:34.357Z,3.90
2019-05-07T22:24:04.018Z,3.83
2019-05-07T22:26:33.574Z,3.87
2019-05-07T22:29:03.153Z,4.43
2019-05-07T22:31:45.200Z,4.13
2019-05-07T22:34:22.231Z,3.67
2019-05-07T22:36:52.133Z,4.37
2019-05-07T22:39:22.150Z,4.37
2019-05-07T22:41:51.122Z,4.30
2019-05-07T22:44:23.676Z,4.63
2019-05-07T22:46:52.761Z,4.30
2019-05-07T22:49:23.075Z,4.57
2019-05-07T22:51:54.851Z,4.50
2019-05-07T22:54:23.044Z,4.03
2019-05-07T22:57:14.211Z,4.43
2019-05-07T22:59:43.589Z,4.30
2019-05-07T23:02:12.755Z,4.67
2019-05-07T23:04:43.167Z,4.13
2019-05-07T23:07:18.093Z,4.63
2019-05-07T23:09:46.917Z,4.17
2019-05-07T23:12:19.169Z,5.23
2019-05-07T23:14:48.007Z,4.40
2019-05-07T23:17:22.061Z,4.40
2019-05-07T23:19:53.026Z,4.93
2019-05-07T23:22:22.656Z,5.07
2019-05-07T23:24:52.802Z,4.87
2019-05-07T23:27:22.534Z,4.80
2019-05-07T23:29:52.869Z,5.43
2019-05-07T23:32:25.157Z,5.37
2019-05-07T23:34:57.189Z,5.03
2019-05-07T23:37:26.000Z,4.67
2019-05-07T23:40:03.581Z,4.40
2019-05-07T23:42:34.779Z,4.73
2019-05-07T23:45:06.965Z,4.73
2019-05-07T23:47:35.788Z,3.80
2019-05-07T23:50:05.282Z,4.43
2019-05-07T23:52:34.257Z,3.97
2019-05-07T23:55:06.584Z,3.97
2019-05-07T23:57:38.458Z,4.07
